Time;durP1;ratioP1;P1;durP2;ratioP2;P2;SDS_P1;SDS_P2;PMS_P1;PMS_P2;Temp;Humidity;BMP_temperature;BMP_pressure;BME280_temperature;BME280_humidity;BME280_pressure;Samples;Min_cycle;Max_cycle;Signal;HPM_P1;HPM_P2
2023/12/12 00:00:19;;;;;;;18.67;6.68;;;;;;;-143.54;100.00;59916.91;5090233;28;20060;-79
2023/12/12 00:02:44;;;;;;;20.83;7.22;;;;;;;-143.54;100.00;59916.91;5095142;28;20020;-79
2023/12/12 00:05:10;;;;;;;16.42;6.78;;;;;;;-143.54;100.00;59916.91;5094409;28;20150;-79
2023/12/12 00:07:35;;;;;;;15.45;6.28;;;;;;;-143.54;100.00;59916.91;5095584;28;20558;-79
2023/12/12 00:10:00;;;;;;;14.02;6.90;;;;;;;-143.54;100.00;59916.91;5094426;28;20028;-79
2023/12/12 00:12:26;;;;;;;14.35;7.18;;;;;;;-143.54;100.00;59916.91;5095021;28;20020;-79
2023/12/12 00:14:51;;;;;;;23.02;7.20;;;;;;;-143.54;100.00;59916.91;5095075;28;20024;-79
2023/12/12 00:17:16;;;;;;;25.02;7.65;;;;;;;-143.54;100.00;59916.91;5094597;28;20077;-79
2023/12/12 00:19:45;;;;;;;22.02;7.40;;;;;;;-143.54;100.00;59916.91;5094731;28;20430;-79
2023/12/12 00:22:11;;;;;;;19.83;7.97;;;;;;;-143.54;100.00;59916.91;5093672;28;20020;-79
2023/12/12 00:24:37;;;;;;;23.75;7.55;;;;;;;-143.54;100.00;59916.91;5094903;28;20032;-79
2023/12/12 00:27:02;;;;;;;23.65;7.55;;;;;;;-143.54;100.00;59916.91;5093174;28;20050;-79
2023/12/12 00:29:27;;;;;;;23.77;7.32;;;;;;;-143.54;100.00;59916.91;5095098;28;20439;-79
2023/12/12 00:31:53;;;;;;;21.35;8.00;;;;;;;-143.54;100.00;59916.91;5093866;28;20027;-79
2023/12/12 00:34:18;;;;;;;25.63;8.18;;;;;;;-143.54;100.00;59916.91;5094310;28;20095;-79
2023/12/12 00:36:43;;;;;;;28.92;8.15;;;;;;;-143.54;100.00;59916.91;5094633;28;20036;-79
2023/12/12 00:39:09;;;;;;;29.73;7.95;;;;;;;-143.54;100.00;59916.91;5093728;28;20049;-79
2023/12/12 00:41:34;;;;;;;25.92;8.63;;;;;;;-143.54;100.00;59916.91;5094126;28;20031;-79
2023/12/12 00:44:00;;;;;;;28.80;8.75;;;;;;;-143.54;100.00;59916.91;5097999;28;20023;-79
2023/12/12 00:46:25;;;;;;;25.10;8.02;;;;;;;-143.54;100.00;59916.91;5095757;28;20060;-79
2023/12/12 00:48:51;;;;;;;26.25;7.85;;;;;;;-143.54;100.00;59916.91;5092592;28;20093;-79
2023/12/12 00:51:16;;;;;;;29.50;7.40;;;;;;;-143.54;100.00;59916.91;5087396;28;20048;-79
2023/12/12 00:53:41;;;;;;;27.58;8.00;;;;;;;-143.54;100.00;59916.91;5085977;28;20059;-79
2023/12/12 00:56:07;;;;;;;22.90;7.30;;;;;;;-143.54;100.00;59916.91;5091352;28;20027;-79
2023/12/12 00:58:32;;;;;;;28.65;8.55;;;;;;;-143.54;100.00;59916.91;5093797;28;20471;-79
2023/12/12 01:00:57;;;;;;;21.48;7.60;;;;;;;-143.54;100.00;59916.91;5104689;28;20023;-79
2023/12/12 01:03:23;;;;;;;19.13;7.15;;;;;;;-143.54;100.00;59916.91;5098385;28;20124;-79
2023/12/12 01:05:48;;;;;;;24.75;7.70;;;;;;;-143.54;100.00;59916.91;5093058;28;20028;-79
2023/12/12 01:08:13;;;;;;;24.40;7.35;;;;;;;-143.54;100.00;59916.91;5093858;28;20054;-79
2023/12/12 01:10:39;;;;;;;24.52;7.30;;;;;;;-143.54;100.00;59916.91;5089583;28;20027;-79
2023/12/12 01:13:04;;;;;;;24.15;7.85;;;;;;;-143.54;100.00;59916.91;5093380;28;20043;-79
2023/12/12 01:15:30;;;;;;;18.80;6.75;;;;;;;-143.54;100.00;59916.91;5099524;28;20028;-79
2023/12/12 01:17:55;;;;;;;23.67;8.10;;;;;;;-143.54;100.00;59916.91;5090320;28;20139;-79
2023/12/12 01:20:20;;;;;;;29.02;7.28;;;;;;;-143.54;100.00;59916.91;5092175;28;20030;-79
2023/12/12 01:22:45;;;;;;;23.75;7.90;;;;;;;-143.54;100.00;59916.91;5090749;28;20027;-79
2023/12/12 01:25:11;;;;;;;24.20;7.75;;;;;;;-143.54;100.00;59916.91;5094366;28;20483;-79
2023/12/12 01:27:36;;;;;;;31.25;7.63;;;;;;;-143.54;100.00;59916.91;5095312;28;21539;-79
2023/12/12 01:30:02;;;;;;;21.92;8.60;;;;;;;-143.54;100.00;59916.91;5104609;28;20459;-79
2023/12/12 01:32:27;;;;;;;29.17;8.00;;;;;;;-143.54;100.00;59916.91;5096026;28;20028;-79
2023/12/12 01:34:52;;;;;;;17.95;7.43;;;;;;;-143.54;100.00;59916.91;5093079;28;20383;-79
2023/12/12 01:37:18;;;;;;;24.85;7.80;;;;;;;-143.54;100.00;59916.91;5086389;28;20108;-79
2023/12/12 01:39:43;;;;;;;24.08;8.18;;;;;;;-143.54;100.00;59916.91;5092356;28;20401;-79
2023/12/12 01:42:09;;;;;;;20.15;7.40;;;;;;;-143.54;100.00;59916.91;5094753;28;20428;-79
2023/12/12 01:44:34;;;;;;;24.45;7.60;;;;;;;-143.54;100.00;59916.91;5100278;28;20032;-79
2023/12/12 01:46:59;;;;;;;27.20;7.82;;;;;;;-143.54;100.00;59916.91;5092875;28;20158;-78
2023/12/12 01:49:25;;;;;;;19.08;7.00;;;;;;;-143.54;100.00;59916.91;5092951;28;20081;-79
2023/12/12 01:51:50;;;;;;;19.92;6.80;;;;;;;-143.54;100.00;59916.91;5091771;28;20031;-79
2023/12/12 01:54:17;;;;;;;32.13;7.70;;;;;;;-143.54;100.00;59916.91;5090029;28;20089;-79
2023/12/12 01:56:46;;;;;;;28.30;7.32;;;;;;;-143.54;100.00;59916.91;5091580;28;20494;-79
2023/12/12 01:59:12;;;;;;;25.13;7.28;;;;;;;-143.54;100.00;59916.91;5095535;28;20039;-79
2023/12/12 02:01:38;;;;;;;27.70;6.93;;;;;;;-143.54;100.00;59916.91;5092416;28;20021;-79
2023/12/12 02:04:05;;;;;;;23.92;7.80;;;;;;;-143.54;100.00;59916.91;5103245;28;20027;-79
2023/12/12 02:06:31;;;;;;;23.88;7.00;;;;;;;-143.54;100.00;59916.91;5098082;28;20162;-79
2023/12/12 02:08:56;;;;;;;30.88;7.95;;;;;;;-143.54;100.00;59916.91;5089904;28;20507;-79
2023/12/12 02:11:21;;;;;;;28.67;7.75;;;;;;;-143.54;100.00;59916.91;5094550;28;20195;-79
2023/12/12 02:13:48;;;;;;;32.88;7.30;;;;;;;-143.54;100.00;59916.91;5091887;28;20457;-79
2023/12/12 02:16:13;;;;;;;29.33;7.30;;;;;;;-143.54;100.00;59916.91;5090627;28;20023;-79
2023/12/12 02:18:39;;;;;;;33.13;7.78;;;;;;;-143.54;100.00;59916.91;5096294;28;20485;-79
2023/12/12 02:21:04;;;;;;;22.20;7.60;;;;;;;-143.54;100.00;59916.91;5092608;28;20024;-79
2023/12/12 02:23:31;;;;;;;24.77;6.75;;;;;;;-143.54;100.00;59916.91;5090109;28;20023;-79
2023/12/12 02:25:58;;;;;;;27.23;8.05;;;;;;;-143.54;100.00;59916.91;5080265;28;20040;-79
2023/12/12 02:28:23;;;;;;;47.08;14.88;;;;;;;-143.54;100.00;59916.91;5098778;28;20028;-79
2023/12/12 02:30:49;;;;;;;46.85;15.30;;;;;;;-143.54;100.00;59916.91;5091529;28;20089;-79
2023/12/12 02:33:15;;;;;;;60.83;22.33;;;;;;;-143.54;100.00;59916.91;5092439;28;20502;-79
2023/12/12 02:35:40;;;;;;;68.65;27.13;;;;;;;-143.54;100.00;59916.91;5084407;28;20064;-79
2023/12/12 02:38:05;;;;;;;58.70;20.27;;;;;;;-143.54;100.00;59916.91;5092052;28;20362;-79
2023/12/12 02:40:31;;;;;;;69.75;28.02;;;;;;;-143.54;100.00;59916.91;5088973;28;20044;-79
2023/12/12 02:42:56;;;;;;;57.45;19.83;;;;;;;-143.54;100.00;59916.91;5094781;28;20055;-79
2023/12/12 02:45:21;;;;;;;45.78;19.85;;;;;;;-143.54;100.00;59916.91;5091314;28;20475;-79
2023/12/12 02:47:47;;;;;;;42.95;16.95;;;;;;;-143.54;100.00;59916.91;5095491;28;20483;-79
2023/12/12 02:50:12;;;;;;;47.33;18.90;;;;;;;-143.54;100.00;59916.91;5092641;28;20020;-79
2023/12/12 02:52:38;;;;;;;35.50;18.75;;;;;;;-143.54;100.00;59916.91;5091742;28;20024;-79
2023/12/12 02:55:03;;;;;;;34.03;17.23;;;;;;;-143.54;100.00;59916.91;5084308;28;20040;-79
2023/12/12 02:57:29;;;;;;;32.00;17.95;;;;;;;-143.54;100.00;59916.91;5092529;28;20028;-79
2023/12/12 02:59:54;;;;;;;37.40;18.95;;;;;;;-143.54;100.00;59916.91;5096815;28;20028;-79
2023/12/12 03:02:19;;;;;;;36.08;17.88;;;;;;;-143.54;100.00;59916.91;5092523;28;20039;-79
2023/12/12 03:04:45;;;;;;;31.02;17.05;;;;;;;-143.54;100.00;59916.91;5093572;28;20560;-79
2023/12/12 03:07:10;;;;;;;41.28;17.35;;;;;;;-143.54;100.00;59916.91;5098862;28;20036;-79
2023/12/12 03:09:36;;;;;;;42.47;21.25;;;;;;;-143.54;100.00;59916.91;5097628;28;20032;-79
2023/12/12 03:12:01;;;;;;;45.80;22.88;;;;;;;-143.54;100.00;59916.91;5095894;28;20546;-79
2023/12/12 03:14:30;;;;;;;46.38;23.58;;;;;;;-143.54;100.00;59916.91;5094709;28;20093;-79
2023/12/12 03:16:59;;;;;;;57.65;28.85;;;;;;;-143.54;100.00;59916.91;5098775;28;20447;-79
2023/12/12 03:19:24;;;;;;;30.58;13.07;;;;;;;-143.54;100.00;59916.91;5097115;28;20028;-79
2023/12/12 03:21:50;;;;;;;50.53;17.30;;;;;;;-143.54;100.00;59916.91;5089033;28;20069;-79
2023/12/12 03:24:16;;;;;;;27.88;9.82;;;;;;;-143.54;100.00;59916.91;5093775;28;20040;-79
2023/12/12 03:26:43;;;;;;;24.52;9.60;;;;;;;-143.54;100.00;59916.91;5091404;28;20032;-79
2023/12/12 03:29:08;;;;;;;35.17;10.20;;;;;;;-143.54;100.00;59916.91;5085796;28;20016;-79
2023/12/12 03:31:33;;;;;;;28.15;10.70;;;;;;;-143.54;100.00;59916.91;5092357;28;20031;-79
2023/12/12 03:33:59;;;;;;;20.02;8.10;;;;;;;-143.54;100.00;59916.91;5091199;28;20016;-79
2023/12/12 03:36:24;;;;;;;31.27;8.73;;;;;;;-143.54;100.00;59916.91;5091813;28;20036;-79
2023/12/12 03:38:50;;;;;;;29.38;7.53;;;;;;;-143.54;100.00;59916.91;5086085;28;20054;-78
2023/12/12 03:41:15;;;;;;;21.02;7.35;;;;;;;-143.54;100.00;59916.91;5091219;28;20016;-79
2023/12/12 03:43:41;;;;;;;25.27;6.72;;;;;;;-143.54;100.00;59916.91;5082982;28;20491;-79
2023/12/12 03:46:10;;;;;;;19.95;7.22;;;;;;;-143.54;100.00;59916.91;5096818;28;20028;-79
2023/12/12 03:48:36;;;;;;;23.40;7.18;;;;;;;-143.54;100.00;59916.91;5091262;28;20028;-79
2023/12/12 03:51:01;;;;;;;20.27;6.55;;;;;;;-143.54;100.00;59916.91;5091173;28;20016;-79
2023/12/12 03:53:26;;;;;;;25.17;6.32;;;;;;;-143.54;100.00;59916.91;5083029;28;20044;-79
2023/12/12 03:55:51;;;;;;;24.30;6.78;;;;;;;-143.54;100.00;59916.91;5087574;28;20025;-79
2023/12/12 03:58:17;;;;;;;26.15;6.97;;;;;;;-143.54;100.00;59916.91;5098380;28;20035;-79
2023/12/12 04:00:42;;;;;;;27.52;7.07;;;;;;;-143.54;100.00;59916.91;5107027;28;20130;-79
2023/12/12 04:03:08;;;;;;;31.20;7.15;;;;;;;-143.54;100.00;59916.91;5090869;28;20028;-79
2023/12/12 04:05:33;;;;;;;29.55;7.38;;;;;;;-143.54;100.00;59916.91;5083020;28;20127;-79
2023/12/12 04:07:58;;;;;;;26.40;8.88;;;;;;;-143.54;100.00;59916.91;5092901;28;20024;-78
2023/12/12 04:10:24;;;;;;;24.58;8.52;;;;;;;-143.54;100.00;59916.91;5096601;28;20016;-79
2023/12/12 04:12:49;;;;;;;32.08;9.15;;;;;;;-143.54;100.00;59916.91;5104239;28;20077;-79
2023/12/12 04:15:15;;;;;;;30.17;8.95;;;;;;;-143.54;100.00;59916.91;5097959;28;20479;-79
2023/12/12 04:17:40;;;;;;;30.27;8.50;;;;;;;-143.54;100.00;59916.91;5095140;28;20146;-79
2023/12/12 04:20:06;;;;;;;32.80;9.27;;;;;;;-143.54;100.00;59916.91;5100503;28;20560;-79
2023/12/12 04:22:31;;;;;;;37.35;10.25;;;;;;;-143.54;100.00;59916.91;5093459;28;20387;-79
2023/12/12 04:24:56;;;;;;;37.63;9.63;;;;;;;-143.54;100.00;59916.91;5094448;28;20032;-79
2023/12/12 04:27:22;;;;;;;33.25;9.68;;;;;;;-143.54;100.00;59916.91;5097742;28;20099;-79
2023/12/12 04:29:47;;;;;;;39.17;10.07;;;;;;;-143.54;100.00;59916.91;5092391;28;20020;-78
2023/12/12 04:32:13;;;;;;;35.92;11.70;;;;;;;-143.54;100.00;59916.91;5098181;28;20024;-79
2023/12/12 04:34:39;;;;;;;40.05;10.70;;;;;;;-143.54;100.00;59916.91;5094791;28;20465;-79
2023/12/12 04:37:04;;;;;;;42.83;10.63;;;;;;;-143.54;100.00;59916.91;5089728;28;20024;-79
2023/12/12 04:39:30;;;;;;;48.60;11.10;;;;;;;-143.54;100.00;59916.91;5094376;28;21254;-79
2023/12/12 04:41:55;;;;;;;34.92;11.15;;;;;;;-143.54;100.00;59916.91;5097718;28;20020;-79
2023/12/12 04:44:21;;;;;;;41.42;10.68;;;;;;;-143.54;100.00;59916.91;5100892;28;20032;-79
2023/12/12 04:46:46;;;;;;;44.03;10.93;;;;;;;-143.54;100.00;59916.91;5097653;28;20051;-79
2023/12/12 04:49:11;;;;;;;40.78;10.35;;;;;;;-143.54;100.00;59916.91;5101098;28;20432;-79
2023/12/12 04:51:37;;;;;;;40.53;10.70;;;;;;;-143.54;100.00;59916.91;5085258;28;20178;-79
2023/12/12 04:54:03;;;;;;;38.03;10.32;;;;;;;-143.54;100.00;59916.91;5093802;28;20047;-79
2023/12/12 04:56:29;;;;;;;35.25;10.32;;;;;;;-143.54;100.00;59916.91;5091183;28;20059;-79
2023/12/12 04:58:54;;;;;;;45.42;10.77;;;;;;;-143.54;100.00;59916.91;5094978;28;20102;-79
2023/12/12 05:01:19;;;;;;;41.47;10.20;;;;;;;-143.54;100.00;59916.91;5094180;28;20025;-79
2023/12/12 05:03:45;;;;;;;34.88;10.48;;;;;;;-143.54;100.00;59916.91;5102554;28;20019;-78
2023/12/12 05:06:11;;;;;;;47.97;10.35;;;;;;;-143.54;100.00;59916.91;5093354;28;20032;-79
2023/12/12 05:08:36;;;;;;;42.05;10.27;;;;;;;-143.54;100.00;59916.91;5094153;28;20032;-79
2023/12/12 05:11:02;;;;;;;43.65;10.50;;;;;;;-143.54;100.00;59916.91;5093703;28;20459;-79
2023/12/12 05:13:27;;;;;;;47.45;10.85;;;;;;;-143.54;100.00;59916.91;5102917;28;20034;-79
2023/12/12 05:15:53;;;;;;;37.80;9.55;;;;;;;-143.54;100.00;59916.91;5093908;28;20032;-79
2023/12/12 05:18:19;;;;;;;39.03;11.38;;;;;;;-143.54;100.00;59916.91;5093893;28;20028;-79
2023/12/12 05:20:44;;;;;;;43.08;10.45;;;;;;;-143.54;100.00;59916.91;5093038;28;20091;-79
2023/12/12 05:23:11;;;;;;;45.25;9.88;;;;;;;-143.54;100.00;59916.91;5095684;28;20486;-79
2023/12/12 05:25:36;;;;;;;36.35;9.85;;;;;;;-143.54;100.00;59916.91;5093385;28;20036;-79
2023/12/12 05:28:01;;;;;;;44.60;10.63;;;;;;;-143.54;100.00;59916.91;5091397;28;20390;-79
2023/12/12 05:30:27;;;;;;;36.50;9.57;;;;;;;-143.54;100.00;59916.91;5093838;28;20087;-79
2023/12/12 05:32:52;;;;;;;41.47;10.70;;;;;;;-143.54;100.00;59916.91;5092817;28;20027;-79
2023/12/12 05:35:17;;;;;;;38.35;9.77;;;;;;;-143.54;100.00;59916.91;5093459;28;20046;-79
2023/12/12 05:37:43;;;;;;;45.35;10.32;;;;;;;-143.54;100.00;59916.91;5084374;28;20022;-79
2023/12/12 05:40:08;;;;;;;40.40;9.80;;;;;;;-143.54;100.00;59916.91;5094393;28;20027;-79
2023/12/12 05:42:33;;;;;;;36.53;10.43;;;;;;;-143.54;100.00;59916.91;5095158;28;20070;-79
2023/12/12 05:44:59;;;;;;;34.75;9.43;;;;;;;-143.54;100.00;59916.91;5099212;28;20390;-79
2023/12/12 05:47:25;;;;;;;36.38;11.02;;;;;;;-143.54;100.00;59916.91;5096568;28;20024;-78
2023/12/12 05:49:50;;;;;;;38.25;10.45;;;;;;;-143.54;100.00;59916.91;5085470;28;20024;-79
2023/12/12 05:52:15;;;;;;;42.33;10.35;;;;;;;-143.54;100.00;59916.91;5100761;28;20442;-79
2023/12/12 05:54:41;;;;;;;46.50;9.40;;;;;;;-143.54;100.00;59916.91;5092381;28;20032;-79
2023/12/12 05:57:06;;;;;;;48.60;10.52;;;;;;;-143.54;100.00;59916.91;5096205;28;20035;-79
2023/12/12 05:59:32;;;;;;;45.25;9.73;;;;;;;-143.54;100.00;59916.91;5092924;28;20115;-79
2023/12/12 06:01:57;;;;;;;45.17;10.80;;;;;;;-143.54;100.00;59916.91;5092216;28;20035;-79
2023/12/12 06:04:22;;;;;;;43.80;9.93;;;;;;;-143.54;100.00;59916.91;5092831;28;20028;-79
2023/12/12 06:06:48;;;;;;;42.75;10.10;;;;;;;-143.54;100.00;59916.91;5092685;28;20115;-79
2023/12/12 06:09:14;;;;;;;42.03;9.32;;;;;;;-143.54;100.00;59916.91;5089820;28;20046;-79
2023/12/12 06:11:40;;;;;;;45.17;10.23;;;;;;;-143.54;100.00;59916.91;5087626;28;20028;-79
2023/12/12 06:14:05;;;;;;;48.03;10.02;;;;;;;-143.54;100.00;59916.91;5086427;28;20069;-79
2023/12/12 06:16:31;;;;;;;36.25;10.13;;;;;;;-143.54;100.00;59916.91;5095340;28;20016;-79
2023/12/12 06:18:57;;;;;;;41.25;9.90;;;;;;;-143.54;100.00;59916.91;5092664;28;20394;-79
2023/12/12 06:21:22;;;;;;;45.42;10.70;;;;;;;-143.54;100.00;59916.91;5092948;28;20028;-79
2023/12/12 06:23:48;;;;;;;48.08;10.77;;;;;;;-143.54;100.00;59916.91;5086545;28;20029;-79
2023/12/12 06:26:14;;;;;;;48.58;10.40;;;;;;;-143.54;100.00;59916.91;5098133;28;20031;-79
2023/12/12 06:28:40;;;;;;;41.35;9.23;;;;;;;-143.54;100.00;59916.91;5097998;28;20058;-79
2023/12/12 06:31:07;;;;;;;46.00;9.98;;;;;;;-143.54;100.00;59916.91;5091417;28;20538;-79
2023/12/12 06:33:32;;;;;;;45.75;10.18;;;;;;;-143.54;100.00;59916.91;5092841;28;20047;-79
2023/12/12 06:35:58;;;;;;;45.60;9.32;;;;;;;-143.54;100.00;59916.91;5091933;28;20420;-79
2023/12/12 06:38:24;;;;;;;40.60;9.32;;;;;;;-143.54;100.00;59916.91;5092987;28;20028;-79
2023/12/12 06:40:49;;;;;;;40.95;9.20;;;;;;;-143.54;100.00;59916.91;5092394;28;20024;-79
2023/12/12 06:43:15;;;;;;;38.15;9.18;;;;;;;-143.54;100.00;59916.91;5099028;28;20065;-79
2023/12/12 06:45:40;;;;;;;51.42;9.82;;;;;;;-143.54;100.00;59916.91;5085622;28;20028;-78
2023/12/12 06:48:06;;;;;;;52.45;9.63;;;;;;;-143.54;100.00;59916.91;5092196;28;20263;-79
2023/12/12 06:50:31;;;;;;;48.75;9.27;;;;;;;-143.54;100.00;59916.91;5093347;28;20058;-79
2023/12/12 06:52:57;;;;;;;40.80;9.18;;;;;;;-143.54;100.00;59916.91;5084228;28;20070;-79
2023/12/12 06:55:22;;;;;;;47.75;9.43;;;;;;;-143.54;100.00;59916.91;5092114;28;20119;-79
2023/12/12 06:57:48;;;;;;;45.42;9.57;;;;;;;-143.54;100.00;59916.91;5089141;28;20031;-78
2023/12/12 07:00:14;;;;;;;45.03;9.63;;;;;;;-143.54;100.00;59916.91;5091888;28;20052;-79
2023/12/12 07:02:39;;;;;;;54.30;9.68;;;;;;;-143.54;100.00;59916.91;5092385;28;20035;-79
2023/12/12 07:05:05;;;;;;;42.50;9.98;;;;;;;-143.54;100.00;59916.91;5091921;28;20028;-79
2023/12/12 07:07:32;;;;;;;58.55;10.45;;;;;;;-143.54;100.00;59916.91;5091969;28;20036;-79
2023/12/12 07:09:57;;;;;;;50.65;9.88;;;;;;;-143.54;100.00;59916.91;5094344;28;20103;-79
2023/12/12 07:12:24;;;;;;;52.70;9.52;;;;;;;-143.54;100.00;59916.91;5082880;28;20122;-78
2023/12/12 07:14:50;;;;;;;46.60;9.90;;;;;;;-143.54;100.00;59916.91;5091527;28;20058;-79
2023/12/12 07:17:15;;;;;;;40.83;10.57;;;;;;;-143.54;100.00;59916.91;5092246;28;20028;-79
2023/12/12 07:19:41;;;;;;;49.55;10.15;;;;;;;-143.54;100.00;59916.91;5091510;28;20020;-79
2023/12/12 07:22:07;;;;;;;42.08;9.18;;;;;;;-143.54;100.00;59916.91;5091758;28;20028;-78
2023/12/12 07:24:32;;;;;;;45.75;9.90;;;;;;;-143.54;100.00;59916.91;5091908;28;20024;-79
2023/12/12 07:26:57;;;;;;;36.58;9.15;;;;;;;-143.54;100.00;59916.91;5089811;28;20371;-79
2023/12/12 07:29:22;;;;;;;37.70;9.32;;;;;;;-143.54;100.00;59916.91;5098353;28;20024;-78
2023/12/12 07:31:48;;;;;;;40.00;9.68;;;;;;;-143.54;100.00;59916.91;5095673;28;20024;-78
2023/12/12 07:34:13;;;;;;;42.58;8.95;;;;;;;-143.54;100.00;59916.91;5091111;28;20035;-78
2023/12/12 07:36:41;;;;;;;43.25;9.40;;;;;;;-143.54;100.00;59916.91;5092089;28;20031;-79
2023/12/12 07:39:06;;;;;;;43.38;9.10;;;;;;;-143.54;100.00;59916.91;5084341;28;20166;-78
2023/12/12 07:41:32;;;;;;;41.75;9.80;;;;;;;-143.54;100.00;59916.91;5088785;28;20096;-79
2023/12/12 07:43:57;;;;;;;44.38;9.65;;;;;;;-143.54;100.00;59916.91;5087086;28;20012;-79
2023/12/12 07:46:23;;;;;;;53.88;10.07;;;;;;;-143.54;100.00;59916.91;5094635;28;20032;-79
2023/12/12 07:48:49;;;;;;;47.28;9.23;;;;;;;-143.54;100.00;59916.91;5093595;28;20031;-78
2023/12/12 07:51:14;;;;;;;48.58;10.02;;;;;;;-143.54;100.00;59916.91;5095100;28;20487;-78
2023/12/12 07:53:39;;;;;;;40.55;8.80;;;;;;;-143.54;100.00;59916.91;5090679;28;20478;-79
2023/12/12 07:56:05;;;;;;;49.10;9.02;;;;;;;-143.54;100.00;59916.91;5094332;28;20051;-79
2023/12/12 07:58:31;;;;;;;43.78;8.88;;;;;;;-143.54;100.00;59916.91;5096409;28;20077;-79
2023/12/12 08:00:56;;;;;;;42.13;9.13;;;;;;;-143.54;100.00;59916.91;5105161;28;20035;-79
2023/12/12 08:03:21;;;;;;;45.28;9.13;;;;;;;-143.54;100.00;59916.91;5095863;28;20028;-79
2023/12/12 08:05:48;;;;;;;37.47;8.63;;;;;;;-143.54;100.00;59916.91;5097444;28;20028;-79
2023/12/12 08:08:13;;;;;;;41.00;9.85;;;;;;;-143.54;100.00;59916.91;5093996;28;20432;-79
2023/12/12 08:10:38;;;;;;;39.40;10.50;;;;;;;-143.54;100.00;59916.91;5086331;28;20089;-79
2023/12/12 08:13:04;;;;;;;45.45;9.18;;;;;;;-143.54;100.00;59916.91;5091790;28;20020;-79
2023/12/12 08:15:29;;;;;;;36.28;8.80;;;;;;;-143.54;100.00;59916.91;5091792;28;20034;-79
2023/12/12 08:17:54;;;;;;;46.80;9.05;;;;;;;-143.54;100.00;59916.91;5095677;28;20524;-79
2023/12/12 08:20:19;;;;;;;46.25;8.80;;;;;;;-143.54;100.00;59916.91;5098171;28;20394;-79
2023/12/12 08:22:45;;;;;;;41.00;8.93;;;;;;;-143.54;100.00;59916.91;5094787;28;20065;-79
2023/12/12 08:25:10;;;;;;;44.20;9.43;;;;;;;-143.54;100.00;59916.91;5094804;28;20459;-79
2023/12/12 08:27:37;;;;;;;42.75;9.80;;;;;;;-143.54;100.00;59916.91;5094360;28;20545;-79
2023/12/12 08:30:05;;;;;;;38.47;9.75;;;;;;;-143.54;100.00;59916.91;5100515;28;20032;-79
2023/12/12 08:32:31;;;;;;;51.35;9.73;;;;;;;-143.54;100.00;59916.91;5103203;28;20028;-79
2023/12/12 08:34:56;;;;;;;50.97;9.48;;;;;;;-143.54;100.00;59916.91;5094680;28;20024;-79
2023/12/12 08:37:22;;;;;;;51.95;10.85;;;;;;;-143.54;100.00;59916.91;5092454;28;20106;-79
2023/12/12 08:39:47;;;;;;;52.70;11.18;;;;;;;-143.54;100.00;59916.91;5093037;28;20106;-79
2023/12/12 08:42:14;;;;;;;44.35;10.40;;;;;;;-143.54;100.00;59916.91;5097852;28;20352;-79
2023/12/12 08:44:42;;;;;;;38.83;10.00;;;;;;;-143.54;100.00;59916.91;5100047;28;20493;-79
2023/12/12 08:47:07;;;;;;;47.15;10.48;;;;;;;-143.54;100.00;59916.91;5096810;28;20020;-79
2023/12/12 08:49:37;;;;;;;40.22;10.07;;;;;;;-143.54;100.00;59916.91;5101351;28;20532;-77
2023/12/12 08:52:04;;;;;;;43.55;11.27;;;;;;;-143.54;100.00;59916.91;5091932;28;20036;-79
2023/12/12 08:54:29;;;;;;;42.50;10.10;;;;;;;-143.54;100.00;59916.91;5091373;28;20036;-79
2023/12/12 08:56:54;;;;;;;40.85;10.55;;;;;;;-143.54;100.00;59916.91;5097463;28;20148;-78
2023/12/12 08:59:23;;;;;;;45.08;9.60;;;;;;;-143.54;100.00;59916.91;5098053;28;20399;-80
2023/12/12 09:01:48;;;;;;;47.10;10.00;;;;;;;-143.54;100.00;59916.91;5095462;28;20394;-79
2023/12/12 09:04:16;;;;;;;36.60;9.55;;;;;;;-143.54;100.00;59916.91;5099717;28;20027;-79
2023/12/12 09:06:44;;;;;;;39.97;9.65;;;;;;;-143.54;100.00;59916.91;5096781;28;20032;-79
2023/12/12 09:09:14;;;;;;;44.60;10.10;;;;;;;-143.54;100.00;59916.91;5093994;28;20078;-79
2023/12/12 09:11:40;;;;;;;36.72;9.02;;;;;;;-143.54;100.00;59916.91;5097002;28;20032;-79
2023/12/12 09:14:06;;;;;;;38.25;9.70;;;;;;;-143.54;100.00;59916.91;5099329;28;20036;-81
2023/12/12 09:16:31;;;;;;;39.40;9.55;;;;;;;-143.54;100.00;59916.91;5091923;28;20032;-79
2023/12/12 09:18:57;;;;;;;35.25;9.75;;;;;;;-143.54;100.00;59916.91;5086156;28;20024;-79
2023/12/12 09:21:22;;;;;;;39.53;10.05;;;;;;;-143.54;100.00;59916.91;5097029;28;20077;-79
2023/12/12 09:23:47;;;;;;;35.60;10.15;;;;;;;-143.54;100.00;59916.91;5099380;28;20080;-79
2023/12/12 09:26:14;;;;;;;40.22;10.43;;;;;;;-143.54;100.00;59916.91;5090222;28;20016;-79
2023/12/12 09:28:43;;;;;;;30.95;8.70;;;;;;;-143.54;100.00;59916.91;5087813;28;20024;-79
2023/12/12 09:31:09;;;;;;;38.40;9.02;;;;;;;-143.54;100.00;59916.91;5091361;28;20482;-79
2023/12/12 09:33:35;;;;;;;34.83;9.02;;;;;;;-143.54;100.00;59916.91;5097473;28;20027;-79
2023/12/12 09:36:01;;;;;;;23.92;8.77;;;;;;;-143.54;100.00;59916.91;5091354;28;20031;-79
2023/12/12 09:38:26;;;;;;;38.60;9.55;;;;;;;-143.54;100.00;59916.91;5092100;28;20035;-79
2023/12/12 09:40:52;;;;;;;43.50;10.05;;;;;;;-143.54;100.00;59916.91;5088422;28;20380;-79
2023/12/12 09:43:18;;;;;;;27.33;8.80;;;;;;;-143.54;100.00;59916.91;5094757;28;20032;-79
2023/12/12 09:45:47;;;;;;;25.65;8.30;;;;;;;-143.54;100.00;59916.91;5102265;28;20383;-79
2023/12/12 09:48:13;;;;;;;33.65;8.18;;;;;;;-143.54;100.00;59916.91;5084801;28;20072;-79
2023/12/12 09:50:40;;;;;;;24.52;8.13;;;;;;;-143.54;100.00;59916.91;5093586;28;20054;-79
2023/12/12 09:53:08;;;;;;;30.77;8.70;;;;;;;-143.54;100.00;59916.91;5092271;28;20804;-79
2023/12/12 09:55:33;;;;;;;30.10;8.48;;;;;;;-143.54;100.00;59916.91;5100683;28;20039;-79
2023/12/12 09:57:58;;;;;;;28.88;7.82;;;;;;;-143.54;100.00;59916.91;5092054;28;20016;-79
2023/12/12 10:00:24;;;;;;;30.60;7.22;;;;;;;-143.54;100.00;59916.91;5093053;28;20027;-79
2023/12/12 10:02:56;;;;;;;35.67;7.93;;;;;;;-143.54;100.00;59916.91;5100560;28;20027;-79
2023/12/12 10:05:22;;;;;;;24.08;7.18;;;;;;;-143.54;100.00;59916.91;5092034;28;20032;-79
2023/12/12 10:07:49;;;;;;;26.15;6.72;;;;;;;-143.54;100.00;59916.91;5098977;28;20081;-79
2023/12/12 10:10:14;;;;;;;23.83;6.05;;;;;;;-143.54;100.00;59916.91;5085431;28;20024;-79
2023/12/12 10:12:41;;;;;;;20.92;6.50;;;;;;;-143.54;100.00;59916.91;5093132;28;20024;-80
2023/12/12 10:15:23;;;;;;;22.25;6.10;;;;;;;-143.54;100.00;59916.91;5086175;28;20035;-80
2023/12/12 10:17:48;;;;;;;22.13;6.45;;;;;;;-143.54;100.00;59916.91;5091968;28;20546;-79
2023/12/12 10:20:25;;;;;;;20.92;5.47;;;;;;;-143.54;100.00;59916.91;5086431;28;20062;-79
2023/12/12 10:22:50;;;;;;;22.13;5.60;;;;;;;-143.54;100.00;59916.91;5091704;28;20016;-79
2023/12/12 10:25:15;;;;;;;18.40;5.35;;;;;;;-143.54;100.00;59916.91;5089190;28;20039;-79
2023/12/12 10:27:42;;;;;;;20.83;5.50;;;;;;;-143.54;100.00;59916.91;5093769;28;20020;-79
2023/12/12 10:30:08;;;;;;;18.00;5.38;;;;;;;-143.54;100.00;59916.91;5090493;28;20051;-79
2023/12/12 10:32:36;;;;;;;18.08;5.18;;;;;;;-143.54;100.00;59916.91;5090242;28;20055;-79
2023/12/12 10:35:01;;;;;;;19.98;5.88;;;;;;;-143.54;100.00;59916.91;5098296;28;20471;-79
2023/12/12 10:37:27;;;;;;;16.80;5.05;;;;;;;-143.54;100.00;59916.91;5093289;28;20034;-80
2023/12/12 10:39:52;;;;;;;15.55;4.38;;;;;;;-143.54;100.00;59916.91;5092633;28;20471;-79
2023/12/12 10:42:17;;;;;;;14.57;4.40;;;;;;;-143.54;100.00;59916.91;5092160;28;20028;-80
2023/12/12 10:44:46;;;;;;;12.05;4.35;;;;;;;-143.54;100.00;59916.91;5088955;28;20420;-79
2023/12/12 10:47:14;;;;;;;14.52;4.43;;;;;;;-143.54;100.00;59916.91;5092354;28;20051;-79
2023/12/12 10:49:43;;;;;;;14.55;4.25;;;;;;;-143.54;100.00;59916.91;5093543;28;20096;-79
2023/12/12 10:52:10;;;;;;;9.32;3.42;;;;;;;-143.54;100.00;59916.91;5097832;28;20164;-76